This is the latest recevied weather packets stored in our database for station/object IW1CBG-3. If no packets are shown the sender has not sent any weather packets the latest 10 day(s).
| Time | Temp. | Humidity | Pressure | Rain* | Wind** | Luminosity | Snow |
|---|---|---|---|---|---|---|---|
| 1777717239 | 17.22° C | 47% | 1035.1 hPa | 0 mm | - | - | - |
| 1777716638 | 17.78° C | 46% | 1034.9 hPa | 0 mm | - | - | - |
| 1777716039 | 17.22° C | 47% | 1035.1 hPa | 0 mm | - | - | - |
| 1777715439 | 16.67° C | 47% | 1035.4 hPa | 0 mm | - | - | - |
| 1777714838 | 17.22° C | 46% | 1035.3 hPa | 0 mm | - | - | - |
| 1777714239 | 16.67° C | 47% | 1035.9 hPa | 0 mm | - | - | - |
| 1777713638 | 16.67° C | 46% | 1035.7 hPa | 0 mm | - | - | - |
| 1777713039 | 16.67° C | 46% | 1036.3 hPa | 0 mm | - | - | - |
| 1777712438 | 16.67° C | 47% | 1036.4 hPa | 0 mm | - | - | - |
| 1777711839 | 15.56° C | 47% | 1036.5 hPa | 0 mm | - | - | - |
| 1777711238 | 15° C | 49% | 1036.9 hPa | 0 mm | - | - | - |
| 1777710639 | 14.44° C | 51% | 1037.2 hPa | 0 mm | - | - | - |
| 1777710038 | 13.89° C | 51% | 1037.3 hPa | 0 mm | - | - | - |
| 1777709439 | 13.33° C | 52% | 1037.6 hPa | 0 mm | - | - | - |
| 1777708838 | 12.22° C | 53% | 1038.1 hPa | 0 mm | - | - | - |
| 1777708239 | 12.22° C | 54% | 1038.1 hPa | 0 mm | - | - | - |
| 1777707638 | 13.33° C | 52% | 1037.9 hPa | 0 mm | - | - | - |
| 1777707038 | 12.22° C | 55% | 1038.4 hPa | 0 mm | - | - | - |
| 1777706438 | 12.22° C | 56% | 1038.4 hPa | 0 mm | - | - | - |
| 1777705838 | 10.56° C | 60% | 1039.3 hPa | 0 mm | - | - | - |
| 1777705239 | 8.89° C | 67% | 1039.7 hPa | 0 mm | - | - | - |
| 1777704639 | 8.33° C | 71% | 1039.8 hPa | 0 mm | - | - | - |
| 1777704039 | 7.78° C | 71% | 1039.9 hPa | 0 mm | - | - | - |
| 1777703439 | 7.78° C | 72% | 1040 hPa | 0 mm | - | - | - |
| 1777702839 | 7.22° C | 72% | 1040.1 hPa | 0 mm | - | - | - |
* Rain latest hour (hover to see other rain measurements)
** Current wind speed in m/s (hover to see current wind gust speed)